Time;durP1;ratioP1;P1;durP2;ratioP2;P2;SDS_P1;SDS_P2;PMS_P1;PMS_P2;Temp;Humidity;BMP_temperature;BMP_pressure;BME280_temperature;BME280_humidity;BME280_pressure;Samples;Min_cycle;Max_cycle;Signal;HPM_P1;HPM_P2
2022/04/26 03:36:35;;;;;;;;;;;8.10;99.90;;;;;;5057623;28;19967;-71
2022/04/26 03:39:00;;;;;;;;;;;8.10;99.90;;;;;;5062407;28;19917;-72
2022/04/26 03:41:26;;;;;;;;;;;8.10;99.90;;;;;;5068420;28;20006;-72
2022/04/26 03:43:51;;;;;;;;;;;8.10;99.90;;;;;;5076026;28;20361;-71
2022/04/26 03:46:17;;;;;;;;;;;8.10;99.90;;;;;;5072182;28;20315;-71
2022/04/26 03:48:42;;;;;;;;;;;8.10;99.90;;;;;;5060529;28;19917;-70
2022/04/26 03:51:09;;;;;;;;;;;8.10;99.90;;;;;;5074738;28;19931;-70
2022/04/26 03:53:35;;;;;;;;;;;8.10;99.90;;;;;;5076094;28;19913;-72
2022/04/26 03:56:00;;;;;;;;;;;8.10;99.90;;;;;;5074722;28;20371;-76
2022/04/26 03:58:26;;;;;;;;;;;8.10;99.90;;;;;;5075711;28;20018;-73
2022/04/26 04:00:52;;;;;;;;;;;8.10;99.90;;;;;;5072378;28;19924;-72
2022/04/26 04:03:18;;;;;;;;;;;8.10;99.90;;;;;;5069527;28;19919;-71
2022/04/26 04:05:44;;;;;;;;;;;8.10;99.90;;;;;;5074446;28;19913;-71
2022/04/26 04:08:09;;;;;;;;;;;8.10;99.90;;;;;;5075799;28;19913;-72
2022/04/26 04:10:35;;;;;;;;;;;8.00;99.90;;;;;;5072095;28;19916;-72
2022/04/26 04:13:00;;;;;;;;;;;8.10;99.90;;;;;;5070098;28;19994;-78
2022/04/26 04:15:26;;;;;;;;;;;8.00;99.90;;;;;;5059396;28;19952;-71
2022/04/26 04:17:53;;;;;;;;;;;8.00;99.90;;;;;;5063940;28;20003;-75
2022/04/26 04:20:19;;;;;;;;;;;8.00;99.90;;;;;;5070665;28;19931;-71
2022/04/26 04:22:45;;;;;;;;;;;8.10;99.90;;;;;;5056923;28;20299;-74
2022/04/26 04:25:10;;;;;;;;;;;8.10;99.90;;;;;;5072630;28;19968;-73
2022/04/26 04:27:36;;;;;;;;;;;8.10;99.90;;;;;;5073398;28;19919;-73
2022/04/26 04:30:03;;;;;;;;;;;8.10;99.90;;;;;;5074883;28;20248;-71
2022/04/26 04:32:29;;;;;;;;;;;8.10;99.90;;;;;;5068799;28;19913;-71
2022/04/26 04:34:55;;;;;;;;;;;8.10;99.90;;;;;;5067850;28;20303;-75
2022/04/26 04:37:24;;;;;;;;;;;8.10;99.90;;;;;;5067472;28;19960;-71
2022/04/26 04:39:50;;;;;;;;;;;8.10;99.90;;;;;;5074480;28;20234;-73
2022/04/26 04:42:15;;;;;;;;;;;8.10;99.90;;;;;;5073115;28;19923;-72
2022/04/26 04:44:41;;;;;;;;;;;8.10;99.90;;;;;;5073582;28;19920;-73
2022/04/26 04:47:06;;;;;;;;;;;8.10;99.90;;;;;;5064699;28;19927;-72
2022/04/26 04:49:32;;;;;;;;;;;8.10;99.90;;;;;;5047924;28;20215;-72
2022/04/26 04:51:58;;;;;;;;;;;8.10;99.90;;;;;;5073752;28;19923;-73
2022/04/26 04:54:23;;;;;;;;;;;8.20;99.90;;;;;;5068804;28;20123;-70
2022/04/26 04:56:49;;;;;;;;;;;8.20;99.90;;;;;;5074985;28;19942;-77
2022/04/26 04:59:16;;;;;;;;;;;8.20;99.90;;;;;;5070419;28;20295;-71
2022/04/26 05:01:42;;;;;;;;;;;8.20;99.90;;;;;;5072917;28;20007;-71
2022/04/26 05:04:07;;;;;;;;;;;8.20;99.90;;;;;;5067489;28;20263;-71
2022/04/26 05:06:33;;;;;;;;;;;8.20;99.90;;;;;;5074335;28;19923;-72
2022/04/26 05:08:59;;;;;;;;;;;8.20;99.90;;;;;;5072696;28;19927;-71
2022/04/26 05:11:24;;;;;;;;;;;8.20;99.90;;;;;;5074842;28;19999;-73
2022/04/26 05:13:50;;;;;;;;;;;8.20;99.90;;;;;;5068818;28;19955;-71
2022/04/26 05:16:15;;;;;;;;;;;8.20;99.90;;;;;;5071033;28;19916;-71
2022/04/26 05:18:41;;;;;;;;;;;8.20;99.90;;;;;;5071225;28;19920;-73
2022/04/26 05:21:10;;;;;;;;;;;8.20;99.90;;;;;;5072341;28;19932;-73
2022/04/26 05:26:20;;;;;;;;;;;8.30;99.90;;;;;;5074401;28;20326;-71
2022/04/26 05:28:45;;;;;;;;;;;8.20;99.90;;;;;;5069711;28;19959;-73
2022/04/26 05:31:11;;;;;;;;;;;8.30;99.90;;;;;;5074139;28;20249;-71
2022/04/26 05:33:36;;;;;;;;;;;8.30;99.90;;;;;;5069328;28;20242;-71
2022/04/26 05:36:02;;;;;;;;;;;8.30;99.90;;;;;;5059064;28;20249;-73
2022/04/26 05:38:28;;;;;;;;;;;8.30;99.90;;;;;;5052651;28;20288;-71
2022/04/26 05:40:54;;;;;;;;;;;8.30;99.90;;;;;;5065514;28;19916;-71
2022/04/26 05:43:19;;;;;;;;;;;8.30;99.90;;;;;;5075177;28;19912;-71
2022/04/26 05:45:45;;;;;;;;;;;8.30;99.90;;;;;;5065005;28;20397;-72
2022/04/26 05:48:11;;;;;;;;;;;8.30;99.90;;;;;;5072512;28;20307;-73
2022/04/26 05:50:37;;;;;;;;;;;8.30;99.90;;;;;;5070706;28;19913;-73
2022/04/26 05:53:02;;;;;;;;;;;8.30;99.90;;;;;;5073432;28;19921;-73
2022/04/26 05:55:28;;;;;;;;;;;8.30;99.90;;;;;;5064960;28;19913;-73
2022/04/26 05:57:54;;;;;;;;;;;8.30;99.90;;;;;;5072593;28;19945;-73
2022/04/26 06:00:20;;;;;;;;;;;8.40;99.90;;;;;;5068380;28;20011;-77
2022/04/26 06:02:45;;;;;;;;;;;8.50;99.90;;;;;;5061037;28;20280;-77
2022/04/26 06:05:11;;;;;;;;;;;8.50;99.90;;;;;;5065714;28;19921;-76
2022/04/26 06:07:36;;;;;;;;;;;8.50;99.90;;;;;;5062355;28;20222;-77
2022/04/26 06:10:02;;;;;;;;;;;8.60;99.90;;;;;;5060957;28;20002;-77
2022/04/26 06:12:28;;;;;;;;;;;8.60;99.90;;;;;;5070317;28;20004;-78
2022/04/26 06:14:54;;;;;;;;;;;8.70;99.90;;;;;;5058850;28;19912;-77
2022/04/26 06:17:20;;;;;;;;;;;8.80;99.90;;;;;;5069665;28;20482;-76
2022/04/26 06:19:45;;;;;;;;;;;8.80;99.90;;;;;;5074601;28;19954;-76
2022/04/26 06:22:11;;;;;;;;;;;8.80;99.90;;;;;;5072726;28;20035;-76
2022/04/26 06:24:36;;;;;;;;;;;8.80;99.90;;;;;;5070778;28;19912;-76
2022/04/26 06:27:02;;;;;;;;;;;8.80;99.90;;;;;;5075226;28;20219;-76
2022/04/26 06:29:28;;;;;;;;;;;8.80;99.90;;;;;;5078252;28;19982;-75
2022/04/26 06:31:54;;;;;;;;;;;8.90;99.90;;;;;;5075304;28;19913;-76
2022/04/26 06:34:19;;;;;;;;;;;9.00;99.90;;;;;;5078035;28;19918;-76
2022/04/26 06:36:45;;;;;;;;;;;9.10;99.90;;;;;;5075456;28;20007;-79
2022/04/26 06:39:10;;;;;;;;;;;9.20;99.90;;;;;;5071489;28;19920;-76
2022/04/26 06:41:36;;;;;;;;;;;9.30;99.90;;;;;;5074309;28;20210;-75
2022/04/26 06:44:02;;;;;;;;;;;9.20;99.90;;;;;;5075100;28;19920;-75
2022/04/26 06:46:28;;;;;;;;;;;9.30;99.90;;;;;;5072551;28;20325;-75
2022/04/26 06:48:57;;;;;;;;;;;9.30;99.90;;;;;;5072677;28;19964;-75
2022/04/26 06:51:22;;;;;;;;;;;9.20;99.90;;;;;;5073803;28;20004;-77
2022/04/26 06:53:48;;;;;;;;;;;9.10;99.90;;;;;;5077941;28;19991;-79
2022/04/26 06:56:14;;;;;;;;;;;9.20;99.90;;;;;;5074160;28;20319;-76
2022/04/26 06:58:39;;;;;;;;;;;9.20;99.90;;;;;;5070397;28;19917;-77
2022/04/26 07:01:05;;;;;;;;;;;9.10;99.90;;;;;;5065526;28;19921;-77
2022/04/26 07:03:31;;;;;;;;;;;9.20;99.90;;;;;;5073324;28;19920;-76
2022/04/26 07:05:56;;;;;;;;;;;9.20;99.90;;;;;;5075915;28;19915;-77
2022/04/26 07:08:22;;;;;;;;;;;9.10;99.90;;;;;;5072015;28;20003;-76
2022/04/26 07:10:47;;;;;;;;;;;9.20;99.90;;;;;;5053403;28;20303;-77
2022/04/26 07:13:18;;;;;;;;;;;9.20;99.90;;;;;;5075642;28;19920;-76
2022/04/26 07:15:44;;;;;;;;;;;9.20;99.90;;;;;;5071581;28;19913;-77
2022/04/26 07:18:09;;;;;;;;;;;9.20;99.90;;;;;;5070792;28;19927;-77
2022/04/26 07:20:35;;;;;;;;;;;9.40;99.90;;;;;;5070811;28;19921;-77
2022/04/26 07:23:00;;;;;;;;;;;9.50;99.90;;;;;;5069611;28;19916;-77
2022/04/26 07:25:26;;;;;;;;;;;9.70;99.90;;;;;;5073565;28;19913;-77
2022/04/26 07:27:52;;;;;;;;;;;9.80;99.90;;;;;;5072376;28;19927;-75
2022/04/26 07:30:17;;;;;;;;;;;9.80;99.90;;;;;;5074061;28;20333;-76
2022/04/26 07:35:34;;;;;;;;;;;10.30;99.90;;;;;;5055776;28;20215;-77
2022/04/26 07:38:06;;;;;;;;;;;10.30;99.90;;;;;;5075214;28;19923;-77
2022/04/26 07:40:32;;;;;;;;;;;10.20;99.90;;;;;;5070648;28;20336;-75
2022/04/26 07:42:58;;;;;;;;;;;10.30;99.90;;;;;;5071238;28;19995;-78
2022/04/26 07:45:24;;;;;;;;;;;10.10;99.90;;;;;;5073646;28;19917;-77
2022/04/26 07:47:49;;;;;;;;;;;10.10;99.90;;;;;;5069475;28;19912;-77
2022/04/26 07:50:15;;;;;;;;;;;10.30;99.90;;;;;;5066848;28;20369;-77
2022/04/26 07:52:41;;;;;;;;;;;10.20;99.90;;;;;;5068797;28;19943;-79
2022/04/26 07:55:07;;;;;;;;;;;10.40;99.90;;;;;;5054431;28;19924;-77
2022/04/26 07:57:32;;;;;;;;;;;10.40;99.90;;;;;;5075112;28;19913;-77
2022/04/26 07:59:58;;;;;;;;;;;10.40;99.90;;;;;;5076638;28;19920;-75
2022/04/26 08:02:24;;;;;;;;;;;10.30;99.90;;;;;;5060440;28;20287;-77
2022/04/26 08:04:50;;;;;;;;;;;10.40;99.90;;;;;;5074981;28;19957;-78
2022/04/26 08:07:15;;;;;;;;;;;10.50;99.90;;;;;;5056204;28;19917;-76
2022/04/26 08:09:43;;;;;;;;;;;10.30;99.90;;;;;;5059390;28;19916;-77
2022/04/26 08:12:08;;;;;;;;;;;10.50;99.90;;;;;;5058586;28;19921;-79
2022/04/26 08:14:34;;;;;;;;;;;10.50;99.90;;;;;;5057444;28;19909;-77
2022/04/26 08:17:00;;;;;;;;;;;10.30;99.90;;;;;;5074444;28;19912;-76
2022/04/26 08:19:25;;;;;;;;;;;10.30;99.90;;;;;;5070821;28;19921;-79
2022/04/26 08:21:51;;;;;;;;;;;10.50;99.90;;;;;;5059188;28;20043;-77
2022/04/26 08:29:46;;;;;;;;;;;10.70;99.90;;;;;;5074367;28;19923;-74
2022/04/26 08:32:13;;;;;;;;;;;10.60;99.90;;;;;;5072220;28;19921;-78
2022/04/26 08:34:39;;;;;;;;;;;10.70;99.90;;;;;;5065231;28;19952;-78
2022/04/26 08:37:05;;;;;;;;;;;11.00;99.90;;;;;;5064977;28;19916;-76
2022/04/26 08:39:31;;;;;;;;;;;10.90;99.90;;;;;;5068731;28;19932;-76
2022/04/26 08:41:57;;;;;;;;;;;10.50;99.90;;;;;;5068034;28;19922;-76
2022/04/26 08:44:25;;;;;;;;;;;10.20;99.90;;;;;;5069426;28;19952;-76
2022/04/26 08:52:19;;;;;;;;;;;10.10;99.90;;;;;;5063436;28;19920;-77
2022/04/26 08:54:44;;;;;;;;;;;10.40;99.90;;;;;;5071489;28;19913;-75
2022/04/26 08:57:12;;;;;;;;;;;10.50;99.90;;;;;;5073785;28;20765;-78
2022/04/26 08:59:44;;;;;;;;;;;10.60;99.90;;;;;;5060492;28;20019;-76
2022/04/26 09:02:18;;;;;;;;;;;10.90;99.90;;;;;;5077858;28;20330;-76
2022/04/26 09:04:44;;;;;;;;;;;11.10;99.90;;;;;;5072872;28;20005;-77
2022/04/26 09:07:12;;;;;;;;;;;11.40;99.90;;;;;;5069142;28;19928;-76
2022/04/26 09:09:38;;;;;;;;;;;11.10;99.90;;;;;;5074622;28;19912;-76
2022/04/26 09:12:09;;;;;;;;;;;10.70;99.90;;;;;;5067417;28;19932;-75
2022/04/26 09:14:47;;;;;;;;;;;10.80;99.90;;;;;;5083975;28;19920;-75
2022/04/26 09:17:13;;;;;;;;;;;10.80;99.90;;;;;;5071015;28;19927;-75
2022/04/26 09:19:57;;;;;;;;;;;11.00;99.90;;;;;;5063514;28;19925;-77
2022/04/26 09:22:25;;;;;;;;;;;11.20;99.90;;;;;;5059983;28;19916;-77
2022/04/26 09:24:56;;;;;;;;;;;11.20;99.90;;;;;;5071598;28;20215;-75
2022/04/26 09:27:23;;;;;;;;;;;11.30;99.90;;;;;;5063066;28;19921;-76
2022/04/26 09:29:48;;;;;;;;;;;11.40;99.90;;;;;;5058851;28;19924;-77
2022/04/26 09:32:14;;;;;;;;;;;11.20;99.90;;;;;;5069379;28;19920;-76
2022/04/26 09:34:40;;;;;;;;;;;11.40;99.90;;;;;;5062614;28;19912;-77
2022/04/26 09:37:05;;;;;;;;;;;11.60;99.90;;;;;;5060336;28;20058;-76
2022/04/26 09:39:31;;;;;;;;;;;11.60;99.90;;;;;;5071559;28;20417;-77
2022/04/26 09:41:57;;;;;;;;;;;11.70;99.90;;;;;;5067175;28;19912;-75
2022/04/26 09:44:32;;;;;;;;;;;11.70;99.90;;;;;;5070370;28;20311;-75
2022/04/26 09:46:58;;;;;;;;;;;11.60;99.90;;;;;;5068128;28;19909;-76
2022/04/26 09:49:25;;;;;;;;;;;11.40;99.90;;;;;;5040589;28;20268;-75
2022/04/26 09:51:56;;;;;;;;;;;11.40;99.90;;;;;;5064646;28;19919;-76
2022/04/26 09:54:22;;;;;;;;;;;11.40;99.90;;;;;;5069072;28;20223;-75
2022/04/26 09:56:47;;;;;;;;;;;11.60;99.90;;;;;;5064642;28;20307;-76
2022/04/26 09:59:15;;;;;;;;;;;11.70;99.90;;;;;;5067071;28;19921;-74
2022/04/26 10:01:42;;;;;;;;;;;11.90;99.90;;;;;;5052173;28;19966;-76
2022/04/26 10:04:09;;;;;;;;;;;11.90;99.90;;;;;;5073488;28;19913;-75
2022/04/26 10:06:35;;;;;;;;;;;11.90;99.90;;;;;;5071537;28;19916;-75
2022/04/26 10:09:02;;;;;;;;;;;11.80;99.90;;;;;;5067895;28;19920;-75
2022/04/26 10:11:28;;;;;;;;;;;11.70;99.90;;;;;;5073367;28;19967;-74
2022/04/26 10:13:54;;;;;;;;;;;11.60;99.90;;;;;;5075372;28;20292;-75
2022/04/26 10:16:23;;;;;;;;;;;11.70;99.90;;;;;;5070968;28;19924;-76
2022/04/26 10:18:49;;;;;;;;;;;11.90;99.90;;;;;;5071664;28;20220;-75
2022/04/26 10:21:17;;;;;;;;;;;11.70;99.90;;;;;;5068581;28;20330;-77
2022/04/26 10:24:09;;;;;;;;;;;11.60;99.90;;;;;;5075039;28;19920;-75
2022/04/26 10:26:35;;;;;;;;;;;11.60;99.90;;;;;;5071008;28;20017;-76
2022/04/26 10:29:06;;;;;;;;;;;11.60;99.90;;;;;;5062821;28;20577;-75
2022/04/26 10:31:38;;;;;;;;;;;11.80;99.90;;;;;;5069724;28;20226;-75
2022/04/26 10:34:13;;;;;;;;;;;12.00;99.90;;;;;;5066354;28;19924;-75
2022/04/26 10:36:38;;;;;;;;;;;11.80;99.90;;;;;;5073955;28;20462;-77
2022/04/26 10:39:12;;;;;;;;;;;11.90;99.90;;;;;;5073442;28;19924;-75
2022/04/26 10:41:40;;;;;;;;;;;11.60;99.90;;;;;;5073214;28;20391;-76
2022/04/26 10:44:24;;;;;;;;;;;11.70;99.90;;;;;;5065216;28;19916;-75
2022/04/26 10:46:55;;;;;;;;;;;11.90;99.90;;;;;;5070228;28;20541;-75
2022/04/26 10:49:29;;;;;;;;;;;12.10;99.90;;;;;;5063991;28;19922;-76
2022/04/26 10:51:56;;;;;;;;;;;12.10;99.90;;;;;;5072064;28;19917;-76
2022/04/26 10:54:40;;;;;;;;;;;12.10;99.90;;;;;;5069320;28;19956;-76
2022/04/26 10:57:06;;;;;;;;;;;12.20;99.90;;;;;;5066029;28;19981;-75
2022/04/26 10:59:31;;;;;;;;;;;12.20;99.90;;;;;;5073447;28;19920;-77
2022/04/26 11:01:57;;;;;;;;;;;12.10;99.90;;;;;;5070102;28;19946;-77
2022/04/26 11:04:23;;;;;;;;;;;12.20;99.90;;;;;;5072631;28;20537;-77
2022/04/26 11:06:48;;;;;;;;;;;12.10;99.90;;;;;;5067442;28;20331;-76
2022/04/26 11:09:15;;;;;;;;;;;12.20;99.90;;;;;;5073613;28;20015;-75
2022/04/26 11:11:50;;;;;;;;;;;12.30;99.90;;;;;;5071350;28;19931;-76
2022/04/26 11:14:17;;;;;;;;;;;12.20;99.90;;;;;;5073339;28;20005;-75
2022/04/26 11:16:59;;;;;;;;;;;12.40;99.90;;;;;;5073694;28;20029;-73
2022/04/26 11:19:25;;;;;;;;;;;12.20;99.90;;;;;;5074376;28;19913;-73
2022/04/26 11:21:51;;;;;;;;;;;12.30;99.90;;;;;;5053128;28;19912;-76
2022/04/26 11:29:52;;;;;;;;;;;12.10;99.90;;;;;;5073116;28;20009;-72
2022/04/26 11:32:43;;;;;;;;;;;11.90;99.90;;;;;;5072837;28;20295;-72
2022/04/26 11:35:15;;;;;;;;;;;12.20;99.90;;;;;;5067504;28;20651;-73
2022/04/26 11:37:48;;;;;;;;;;;12.40;99.90;;;;;;5065362;28;20600;-73
2022/04/26 11:40:24;;;;;;;;;;;12.40;99.90;;;;;;5054023;28;19916;-72
2022/04/26 11:42:50;;;;;;;;;;;12.50;99.90;;;;;;5063551;28;20357;-71
2022/04/26 11:45:16;;;;;;;;;;;12.60;99.90;;;;;;5072147;28;19916;-73
2022/04/26 11:47:43;;;;;;;;;;;12.90;99.90;;;;;;5072875;28;19913;-71
2022/04/26 11:50:10;;;;;;;;;;;12.80;99.90;;;;;;5072543;28;19946;-73
2022/04/26 11:52:35;;;;;;;;;;;12.90;99.90;;;;;;5076392;28;19920;-73
2022/04/26 11:55:01;;;;;;;;;;;12.60;99.90;;;;;;5072673;28;19920;-73
2022/04/26 11:57:27;;;;;;;;;;;12.70;99.90;;;;;;5072572;28;19912;-73
2022/04/26 11:59:53;;;;;;;;;;;12.80;99.90;;;;;;5070436;28;19931;-74
2022/04/26 12:02:18;;;;;;;;;;;13.10;99.90;;;;;;5071244;28;19909;-74
2022/04/26 12:04:44;;;;;;;;;;;12.80;99.90;;;;;;5062065;28;19935;-74
2022/04/26 12:07:10;;;;;;;;;;;12.70;99.90;;;;;;5069724;28;19923;-73
2022/04/26 12:09:35;;;;;;;;;;;12.40;99.90;;;;;;5073515;28;19913;-74
2022/04/26 12:12:02;;;;;;;;;;;12.60;99.90;;;;;;5072294;28;20220;-77
2022/04/26 12:14:28;;;;;;;;;;;12.70;99.90;;;;;;5055365;28;19920;-73
2022/04/26 12:16:55;;;;;;;;;;;12.60;99.90;;;;;;5073567;28;19920;-72
2022/04/26 12:19:32;;;;;;;;;;;12.70;99.90;;;;;;5072901;28;20242;-73
2022/04/26 12:22:00;;;;;;;;;;;12.80;99.90;;;;;;5073228;28;19922;-72
2022/04/26 12:24:27;;;;;;;;;;;12.70;99.90;;;;;;5041262;28;19916;-73
2022/04/26 12:27:00;;;;;;;;;;;12.60;99.90;;;;;;5072630;28;19912;-73
2022/04/26 12:29:25;;;;;;;;;;;12.80;99.90;;;;;;5072972;28;19936;-73
2022/04/26 12:31:51;;;;;;;;;;;12.90;99.90;;;;;;5053584;28;20324;-72
2022/04/26 12:34:24;;;;;;;;;;;12.90;99.90;;;;;;5063911;28;20295;-72
2022/04/26 12:36:53;;;;;;;;;;;12.90;99.90;;;;;;5072582;28;19920;-72
2022/04/26 12:39:20;;;;;;;;;;;12.70;99.90;;;;;;5072762;28;19958;-73
2022/04/26 12:41:49;;;;;;;;;;;13.10;99.90;;;;;;5072491;28;19916;-73
2022/04/26 12:44:15;;;;;;;;;;;13.20;99.90;;;;;;5053930;28;19927;-73
2022/04/26 12:46:46;;;;;;;;;;;12.90;99.90;;;;;;5062572;28;19916;-73
2022/04/26 12:51:57;;;;;;;;;;;12.60;99.90;;;;;;5070245;28;20042;-72
2022/04/26 12:54:22;;;;;;;;;;;12.60;99.90;;;;;;5072056;28;19920;-72
2022/04/26 12:57:03;;;;;;;;;;;12.80;99.90;;;;;;5069899;28;19919;-79
2022/04/26 12:59:36;;;;;;;;;;;12.80;99.90;;;;;;5073066;28;20473;-73
2022/04/26 13:02:02;;;;;;;;;;;12.60;99.90;;;;;;5072744;28;20306;-75
2022/04/26 13:04:27;;;;;;;;;;;12.90;99.90;;;;;;5073208;28;19940;-72
2022/04/26 13:06:53;;;;;;;;;;;12.90;99.90;;;;;;5071325;28;19966;-72
2022/04/26 13:09:19;;;;;;;;;;;13.00;99.90;;;;;;5071626;28;19920;-72
2022/04/26 13:11:45;;;;;;;;;;;13.00;99.90;;;;;;5072514;28;19928;-72
2022/04/26 13:14:11;;;;;;;;;;;12.60;99.90;;;;;;5072831;28;20016;-77
2022/04/26 13:16:36;;;;;;;;;;;12.80;99.90;;;;;;5071662;28;20003;-73
2022/04/26 13:19:02;;;;;;;;;;;12.80;99.90;;;;;;5066173;28;20024;-73
2022/04/26 13:21:28;;;;;;;;;;;12.80;99.90;;;;;;5071805;28;19927;-74
2022/04/26 13:23:57;;;;;;;;;;;12.70;99.90;;;;;;5070230;28;20283;-73
2022/04/26 13:26:23;;;;;;;;;;;12.50;99.90;;;;;;5072005;28;19916;-73
2022/04/26 13:28:48;;;;;;;;;;;12.80;99.90;;;;;;5072241;28;19942;-80
2022/04/26 13:31:14;;;;;;;;;;;12.70;99.90;;;;;;5072069;28;19913;-72
2022/04/26 13:33:42;;;;;;;;;;;12.90;99.90;;;;;;5024522;28;19927;-72
2022/04/26 13:36:08;;;;;;;;;;;12.80;99.90;;;;;;5059718;28;20013;-72
2022/04/26 13:38:33;;;;;;;;;;;13.30;99.90;;;;;;5071489;28;20315;-73
2022/04/26 13:41:00;;;;;;;;;;;13.20;99.90;;;;;;5071287;28;20260;-73
2022/04/26 13:43:25;;;;;;;;;;;13.00;99.90;;;;;;5056990;28;19913;-73
2022/04/26 13:45:51;;;;;;;;;;;12.90;99.90;;;;;;5067168;28;19973;-77
2022/04/26 13:48:17;;;;;;;;;;;12.60;99.90;;;;;;5062100;28;20403;-72
2022/04/26 13:50:50;;;;;;;;;;;12.80;99.90;;;;;;5069671;28;19958;-72
2022/04/26 13:53:15;;;;;;;;;;;12.80;99.90;;;;;;5069989;28;19920;-72
2022/04/26 13:55:41;;;;;;;;;;;13.00;99.90;;;;;;5069619;28;19920;-76
2022/04/26 13:58:09;;;;;;;;;;;12.70;99.90;;;;;;5071789;28;19915;-74
2022/04/26 14:00:36;;;;;;;;;;;12.60;99.90;;;;;;5070710;28;19927;-72
2022/04/26 14:03:02;;;;;;;;;;;12.90;99.90;;;;;;5071381;28;20323;-73
2022/04/26 14:05:28;;;;;;;;;;;13.20;99.90;;;;;;5071528;28;19958;-73
2022/04/26 14:07:53;;;;;;;;;;;13.00;99.90;;;;;;5070033;28;19920;-72
2022/04/26 14:10:19;;;;;;;;;;;12.50;99.90;;;;;;5071103;28;19923;-73
2022/04/26 14:12:44;;;;;;;;;;;12.40;99.90;;;;;;5070229;28;20327;-77
2022/04/26 14:23:27;;;;;;;;;;;11.90;99.90;;;;;;5070735;28;20009;-77
2022/04/26 14:25:52;;;;;;;;;;;11.70;99.90;;;;;;5070422;28;20303;-79
2022/04/26 14:28:18;;;;;;;;;;;12.00;99.90;;;;;;5071651;28;20311;-79
2022/04/26 14:30:44;;;;;;;;;;;12.50;99.90;;;;;;5071447;28;19913;-78
2022/04/26 14:33:11;;;;;;;;;;;13.00;99.90;;;;;;5071197;28;19973;-77
2022/04/26 14:35:36;;;;;;;;;;;12.90;99.90;;;;;;5061577;28;19913;-79
2022/04/26 14:38:02;;;;;;;;;;;12.80;99.90;;;;;;5060519;28;19921;-77
2022/04/26 14:40:28;;;;;;;;;;;12.50;99.90;;;;;;5060013;28;19992;-79
2022/04/26 14:42:54;;;;;;;;;;;12.60;99.90;;;;;;5069104;28;19909;-78
2022/04/26 14:45:20;;;;;;;;;;;12.70;99.90;;;;;;5064291;28;19909;-78
2022/04/26 14:47:46;;;;;;;;;;;12.90;99.90;;;;;;5074835;28;20227;-75
2022/04/26 14:50:12;;;;;;;;;;;13.00;99.90;;;;;;5068061;28;19913;-76
2022/04/26 14:52:37;;;;;;;;;;;12.70;99.90;;;;;;5058462;28;19935;-76
2022/04/26 14:55:04;;;;;;;;;;;12.40;99.90;;;;;;5077982;28;19920;-78
2022/04/26 14:57:29;;;;;;;;;;;12.10;99.90;;;;;;5076346;28;19955;-78
2022/04/26 14:59:55;;;;;;;;;;;12.10;99.90;;;;;;5073392;28;19951;-77
2022/04/26 15:02:21;;;;;;;;;;;11.90;99.90;;;;;;5069276;28;19966;-78
2022/04/26 15:04:47;;;;;;;;;;;11.70;99.90;;;;;;5073869;28;19917;-78
2022/04/26 15:07:13;;;;;;;;;;;11.70;99.90;;;;;;5073547;28;19947;-78
2022/04/26 15:09:51;;;;;;;;;;;11.70;99.90;;;;;;5076637;28;19958;-76
2022/04/26 15:17:49;;;;;;;;;;;11.40;99.90;;;;;;5073842;28;19964;-78
2022/04/26 15:20:16;;;;;;;;;;;11.70;99.90;;;;;;5068591;28;20238;-77
2022/04/26 15:22:42;;;;;;;;;;;11.90;99.90;;;;;;5073921;28;19916;-76
2022/04/26 15:25:09;;;;;;;;;;;11.90;99.90;;;;;;5074376;28;20295;-78
2022/04/26 15:27:36;;;;;;;;;;;11.90;99.90;;;;;;5072918;28;19917;-74
2022/04/26 15:30:03;;;;;;;;;;;11.90;99.90;;;;;;5065117;28;19969;-79
2022/04/26 15:32:29;;;;;;;;;;;11.60;99.90;;;;;;5062058;28;19916;-77
2022/04/26 15:34:54;;;;;;;;;;;11.70;99.90;;;;;;5065023;28;19939;-79
2022/04/26 15:37:20;;;;;;;;;;;11.80;99.90;;;;;;5073252;28;19913;-77
2022/04/26 15:39:47;;;;;;;;;;;11.80;99.90;;;;;;5073867;28;20215;-79
2022/04/26 15:42:14;;;;;;;;;;;11.70;99.90;;;;;;5069032;28;19951;-77
2022/04/26 15:44:40;;;;;;;;;;;11.70;99.90;;;;;;5069160;28;20235;-78
2022/04/26 15:47:06;;;;;;;;;;;11.60;99.90;;;;;;5068277;28;19916;-77
2022/04/26 15:49:31;;;;;;;;;;;11.70;99.90;;;;;;5070132;28;20398;-78
2022/04/26 15:51:57;;;;;;;;;;;11.50;99.90;;;;;;5069866;28;20132;-77
2022/04/26 15:54:23;;;;;;;;;;;11.50;99.90;;;;;;5072554;28;20250;-76
2022/04/26 15:56:49;;;;;;;;;;;11.60;99.90;;;;;;5072644;28;19909;-77
2022/04/26 15:59:14;;;;;;;;;;;11.70;99.90;;;;;;5060079;28;20341;-74
2022/04/26 16:01:40;;;;;;;;;;;11.50;99.90;;;;;;5055385;28;19959;-82
2022/04/26 16:04:06;;;;;;;;;;;11.40;99.90;;;;;;5071899;28;19916;-80
2022/04/26 16:06:33;;;;;;;;;;;11.60;99.90;;;;;;5072335;28;19954;-76
2022/04/26 16:20:28;;;;;;;;;;;11.60;99.90;;;;;;5072139;28;20331;-78
2022/04/26 16:22:42;;;;;;;;;;;11.80;99.90;;;;;;5069505;28;21790;-74
2022/04/26 16:25:08;;;;;;;;;;;11.50;99.90;;;;;;5071085;28;19923;-78
2022/04/26 16:27:33;;;;;;;;;;;11.60;99.90;;;;;;5069610;28;20348;-76
2022/04/26 16:30:01;;;;;;;;;;;11.70;99.90;;;;;;5071265;28;19939;-77
2022/04/26 16:32:29;;;;;;;;;;;11.60;99.90;;;;;;5069858;28;19923;-75
2022/04/26 16:34:56;;;;;;;;;;;11.50;99.90;;;;;;5062363;28;20026;-78
2022/04/26 16:37:22;;;;;;;;;;;11.40;99.90;;;;;;5060557;28;19921;-74
2022/04/26 16:39:48;;;;;;;;;;;11.40;99.90;;;;;;5062328;28;19935;-73
2022/04/26 16:42:14;;;;;;;;;;;11.30;99.90;;;;;;5069947;28;19916;-74
2022/04/26 16:44:40;;;;;;;;;;;11.10;99.90;;;;;;5072269;28;20305;-77
2022/04/26 16:47:06;;;;;;;;;;;10.90;99.90;;;;;;5071609;28;19912;-76
2022/04/26 16:49:32;;;;;;;;;;;10.70;99.90;;;;;;5049054;28;19921;-77
2022/04/26 16:51:58;;;;;;;;;;;10.70;99.90;;;;;;5052971;28;19909;-77
2022/04/26 16:54:23;;;;;;;;;;;10.60;99.90;;;;;;5067865;28;19950;-76
2022/04/26 16:56:49;;;;;;;;;;;10.50;99.90;;;;;;5071429;28;19921;-78
2022/04/26 16:59:17;;;;;;;;;;;10.40;99.90;;;;;;5071756;28;20375;-76
2022/04/26 17:01:43;;;;;;;;;;;10.50;99.90;;;;;;5072469;28;19963;-74
2022/04/26 17:04:12;;;;;;;;;;;10.50;99.90;;;;;;5069410;28;19916;-78
2022/04/26 17:06:38;;;;;;;;;;;10.50;99.90;;;;;;5064067;28;20015;-78
2022/04/26 17:09:04;;;;;;;;;;;10.60;99.90;;;;;;5070596;28;19913;-74
2022/04/26 17:11:43;;;;;;;;;;;10.60;99.90;;;;;;5064433;28;20357;-75
2022/04/26 17:14:12;;;;;;;;;;;10.60;99.90;;;;;;5067608;28;19927;-77
2022/04/26 17:16:37;;;;;;;;;;;10.60;99.90;;;;;;5052889;28;19912;-78
2022/04/26 17:19:03;;;;;;;;;;;10.60;99.90;;;;;;5051342;28;20004;-75
2022/04/26 17:21:29;;;;;;;;;;;10.60;99.90;;;;;;5064483;28;19932;-78
2022/04/26 17:23:55;;;;;;;;;;;10.60;99.90;;;;;;5070600;28;19923;-77
2022/04/26 17:26:20;;;;;;;;;;;10.50;99.90;;;;;;5070690;28;20015;-74
2022/04/26 17:28:46;;;;;;;;;;;10.40;99.90;;;;;;5070601;28;20540;-77
2022/04/26 17:31:14;;;;;;;;;;;10.40;99.90;;;;;;5072673;28;19923;-78
2022/04/26 17:33:40;;;;;;;;;;;10.40;99.90;;;;;;5072518;28;19928;-75
2022/04/26 17:36:06;;;;;;;;;;;10.40;99.90;;;;;;5072162;28;20307;-77
2022/04/26 17:38:32;;;;;;;;;;;10.40;99.90;;;;;;5072768;28;19912;-78
2022/04/26 17:40:57;;;;;;;;;;;10.40;99.90;;;;;;5073473;28;19922;-78
2022/04/26 17:43:23;;;;;;;;;;;10.40;99.90;;;;;;5070034;28;19916;-77
2022/04/26 17:45:48;;;;;;;;;;;10.40;99.90;;;;;;5073631;28;20000;-75
2022/04/26 17:48:14;;;;;;;;;;;10.40;99.90;;;;;;5074880;28;19913;-77
2022/04/26 17:50:43;;;;;;;;;;;10.20;99.90;;;;;;5071211;28;19919;-78
2022/04/26 17:58:38;;;;;;;;;;;10.10;99.90;;;;;;5074860;28;19915;-72
2022/04/26 18:01:04;;;;;;;;;;;10.10;99.90;;;;;;5074752;28;19912;-72
2022/04/26 18:03:30;;;;;;;;;;;10.10;99.90;;;;;;5072813;28;19963;-72
2022/04/26 18:05:56;;;;;;;;;;;10.00;99.90;;;;;;5071069;28;20303;-71
2022/04/26 18:08:23;;;;;;;;;;;10.00;99.90;;;;;;5073674;28;19912;-72
2022/04/26 18:10:51;;;;;;;;;;;10.00;99.90;;;;;;5073595;28;19913;-77
2022/04/26 18:13:16;;;;;;;;;;;10.00;99.90;;;;;;5074187;28;20011;-72
2022/04/26 18:15:42;;;;;;;;;;;9.90;99.90;;;;;;5074131;28;20003;-72
2022/04/26 18:18:08;;;;;;;;;;;9.80;99.90;;;;;;5072227;28;19909;-73
2022/04/26 18:20:33;;;;;;;;;;;9.80;99.90;;;;;;5072293;28;19920;-73
2022/04/26 18:22:59;;;;;;;;;;;9.80;99.90;;;;;;5075158;28;19944;-71
2022/04/26 18:28:09;;;;;;;;;;;9.90;99.90;;;;;;5075760;28;19920;-72
2022/04/26 18:30:35;;;;;;;;;;;9.80;99.90;;;;;;5077596;28;19913;-72
2022/04/26 18:33:00;;;;;;;;;;;9.80;99.90;;;;;;5077162;28;19941;-73
2022/04/26 18:35:26;;;;;;;;;;;9.80;99.90;;;;;;5077629;28;19912;-72
2022/04/26 18:37:52;;;;;;;;;;;9.70;99.90;;;;;;5076369;28;19921;-73
2022/04/26 18:40:18;;;;;;;;;;;9.70;99.90;;;;;;5076655;28;20307;-72
2022/04/26 18:42:44;;;;;;;;;;;9.60;99.90;;;;;;5070949;28;19991;-72
2022/04/26 18:45:10;;;;;;;;;;;9.50;99.90;;;;;;5076462;28;20042;-73
2022/04/26 18:47:35;;;;;;;;;;;9.40;99.90;;;;;;5077328;28;20232;-72
2022/04/26 18:50:01;;;;;;;;;;;9.20;99.90;;;;;;5077211;28;19912;-71
2022/04/26 18:52:26;;;;;;;;;;;9.10;99.90;;;;;;5076495;28;19912;-76